createdAt,value
2023-06-12T00:01:28.582Z,100441.09
2023-06-12T00:05:14.149Z,100435.16
2023-06-12T00:08:48.506Z,100438.44
2023-06-12T00:11:55.958Z,100433.56
2023-06-12T00:15:04.736Z,100427.31
2023-06-12T00:18:07.694Z,100434.13
2023-06-12T00:21:12.512Z,100434.38
2023-06-12T00:24:15.259Z,100435.09
2023-06-12T00:27:18.084Z,100440.69
2023-06-12T00:30:21.154Z,100434.44
2023-06-12T00:33:24.229Z,100444.81
2023-06-12T00:36:28.346Z,100440.53
2023-06-12T00:39:31.073Z,100440.69
2023-06-12T00:42:35.147Z,100440.03
2023-06-12T00:45:38.403Z,100441.69
2023-06-12T00:48:42.083Z,100448.78
2023-06-12T00:51:45.247Z,100447.09
2023-06-12T00:54:51.592Z,100444.41
2023-06-12T00:57:54.960Z,100446.75
2023-06-12T01:00:58.052Z,100440.03
2023-06-12T01:04:08.134Z,100432.16
2023-06-12T01:07:30.574Z,100437.75
2023-06-12T01:10:38.367Z,100439.38
2023-06-12T01:13:41.596Z,100439.38
2023-06-12T01:16:47.108Z,100445.09
2023-06-12T01:19:50.284Z,100443.16
2023-06-12T01:23:00.621Z,100443.72
2023-06-12T01:26:15.179Z,100445.00
2023-06-12T01:29:41.793Z,100435.84
2023-06-12T01:32:51.493Z,100438.28
2023-06-12T01:35:55.012Z,100441.66
2023-06-12T01:39:02.213Z,100437.16
2023-06-12T01:42:08.400Z,100437.03
2023-06-12T01:45:11.667Z,100434.38
2023-06-12T01:48:15.689Z,100429.28
2023-06-12T01:51:19.485Z,100434.84
2023-06-12T01:54:26.714Z,100435.56
2023-06-12T01:57:29.819Z,100431.03
2023-06-12T02:00:33.525Z,100435.34
2023-06-12T02:03:38.561Z,100441.50
2023-06-12T02:06:41.571Z,100441.16
2023-06-12T02:09:44.646Z,100436.63
2023-06-12T02:12:47.560Z,100434.28
2023-06-12T02:15:50.712Z,100436.00
2023-06-12T02:18:53.479Z,100437.78
2023-06-12T02:21:58.034Z,100436.97
2023-06-12T02:25:01.354Z,100435.13
2023-06-12T02:28:04.893Z,100434.53
2023-06-12T02:31:08.184Z,100430.22
2023-06-12T02:34:12.049Z,100438.50
2023-06-12T02:37:16.675Z,100440.00
2023-06-12T02:40:22.170Z,100442.78
2023-06-12T02:43:25.118Z,100452.78
2023-06-12T02:46:29.751Z,100450.25
2023-06-12T02:49:32.995Z,100463.81
2023-06-12T02:52:36.529Z,100463.59
2023-06-12T02:55:41.226Z,100473.72
2023-06-12T02:58:46.297Z,100475.66
2023-06-12T03:01:49.644Z,100465.78
2023-06-12T03:05:01.427Z,100470.47
2023-06-12T03:08:04.904Z,100470.13
2023-06-12T03:11:08.471Z,100460.97
2023-06-12T03:14:15.896Z,100473.75
2023-06-12T03:17:20.421Z,100469.66
2023-06-12T03:20:26.009Z,100465.97
2023-06-12T03:23:29.228Z,100471.63
2023-06-12T03:26:35.223Z,100473.25
2023-06-12T03:29:38.148Z,100475.34
2023-06-12T03:32:42.197Z,100479.97
2023-06-12T03:35:45.239Z,100479.50
2023-06-12T03:38:49.813Z,100480.31
2023-06-12T03:41:58.070Z,100485.44
2023-06-12T03:45:18.280Z,100489.03
2023-06-12T03:48:21.329Z,100477.41
2023-06-12T03:51:24.586Z,100484.28
2023-06-12T03:54:28.499Z,100486.13
2023-06-12T03:57:31.274Z,100477.78
2023-06-12T04:00:34.038Z,100483.34
2023-06-12T04:03:39.779Z,100485.56
2023-06-12T04:06:43.272Z,100483.34
2023-06-12T04:09:47.319Z,100477.19
2023-06-12T04:12:50.588Z,100481.41
2023-06-12T04:15:53.475Z,100480.94
2023-06-12T04:18:58.949Z,100483.47
2023-06-12T04:22:02.899Z,100484.75
2023-06-12T04:25:08.103Z,100489.50
2023-06-12T04:28:14.962Z,100501.00
2023-06-12T04:31:17.880Z,100497.16
2023-06-12T04:34:20.792Z,100495.63
2023-06-12T04:37:24.245Z,100489.00
2023-06-12T04:40:28.818Z,100500.75
2023-06-12T04:43:33.408Z,100491.94
2023-06-12T04:46:37.249Z,100500.38
2023-06-12T04:49:42.932Z,100498.34
2023-06-12T04:52:45.796Z,100504.53
2023-06-12T04:55:51.583Z,100499.34
2023-06-12T04:58:54.945Z,100494.69
2023-06-12T05:01:59.305Z,100495.69
2023-06-12T05:05:02.315Z,100497.81
2023-06-12T05:08:05.390Z,100496.06
2023-06-12T05:11:08.543Z,100494.59
2023-06-12T05:14:11.558Z,100495.97
2023-06-12T05:17:15.385Z,100494.84
2023-06-12T05:20:18.919Z,100498.56
2023-06-12T05:23:21.912Z,100501.31
2023-06-12T05:26:24.791Z,100501.50
2023-06-12T05:29:28.577Z,100493.09
2023-06-12T05:32:31.532Z,100496.31
2023-06-12T05:35:35.708Z,100494.38
2023-06-12T05:38:40.225Z,100492.28
2023-06-12T05:41:43.454Z,100496.72
2023-06-12T05:44:47.848Z,100488.25
2023-06-12T05:47:51.575Z,100493.06
2023-06-12T05:50:55.089Z,100502.00
2023-06-12T05:54:03.199Z,100499.78
2023-06-12T05:57:07.175Z,100507.97
2023-06-12T06:00:13.599Z,100505.97
2023-06-12T06:03:21.470Z,100512.38
2023-06-12T06:06:24.786Z,100511.22
2023-06-12T06:09:28.954Z,100511.94
2023-06-12T06:12:32.952Z,100515.91
2023-06-12T06:15:36.926Z,100518.59
2023-06-12T06:18:41.425Z,100510.47
2023-06-12T06:21:44.591Z,100516.47
2023-06-12T06:24:47.824Z,100519.41
2023-06-12T06:27:51.498Z,100512.47
2023-06-12T06:30:54.883Z,100505.31
2023-06-12T06:33:57.745Z,100513.47
2023-06-12T06:37:00.586Z,100510.81
2023-06-12T06:40:06.179Z,100504.41
2023-06-12T06:43:10.274Z,100508.41
2023-06-12T06:46:24.720Z,100505.66
2023-06-12T06:49:31.507Z,100509.38
2023-06-12T06:52:34.931Z,100508.06
2023-06-12T06:55:38.851Z,100507.22
2023-06-12T06:58:50.748Z,100513.00
2023-06-12T07:02:06.216Z,100515.63
2023-06-12T07:05:09.984Z,100506.66
2023-06-12T07:08:14.131Z,100507.91
2023-06-12T07:11:19.968Z,100509.72
2023-06-12T07:14:34.181Z,100516.16
2023-06-12T07:17:40.144Z,100505.72
2023-06-12T07:20:46.144Z,100512.16
2023-06-12T07:23:54.953Z,100509.31
2023-06-12T07:27:04.231Z,100516.41
2023-06-12T07:30:07.886Z,100502.16
2023-06-12T07:33:11.961Z,100510.03
2023-06-12T07:36:16.946Z,100506.06
2023-06-12T07:39:20.204Z,100503.59
2023-06-12T07:42:24.616Z,100506.31
2023-06-12T07:45:27.642Z,100511.63
2023-06-12T07:48:31.591Z,100510.97
2023-06-12T07:51:38.253Z,100499.56
2023-06-12T07:54:41.678Z,100492.19
2023-06-12T07:57:49.031Z,100488.66
2023-06-12T08:04:50.410Z,100494.47
2023-06-12T08:07:56.306Z,100484.66
2023-06-12T08:11:27.263Z,100479.88
2023-06-12T08:14:53.341Z,100479.94
2023-06-12T08:18:01.236Z,100478.50
2023-06-12T08:21:04.234Z,100484.53
2023-06-12T08:24:19.785Z,100485.41
2023-06-12T08:27:48.654Z,100481.31
2023-06-12T08:31:00.744Z,100475.47
2023-06-12T08:34:09.214Z,100484.47
2023-06-12T08:37:19.075Z,100487.72
2023-06-12T08:40:21.940Z,100473.97
2023-06-12T08:43:24.989Z,100478.53
2023-06-12T08:46:34.549Z,100479.31
2023-06-12T08:49:38.667Z,100482.59
2023-06-12T08:52:42.943Z,100471.56
2023-06-12T08:55:49.008Z,100483.78
2023-06-12T08:58:54.408Z,100484.22
2023-06-12T09:02:14.724Z,100475.59
2023-06-12T09:05:31.510Z,100477.75
2023-06-12T09:08:37.454Z,100481.53
2023-06-12T09:11:40.478Z,100479.44
2023-06-12T09:14:47.026Z,100474.53
2023-06-12T09:17:54.393Z,100471.66
2023-06-12T09:21:01.633Z,100472.63
2023-06-12T09:24:12.502Z,100472.34
2023-06-12T09:28:08.525Z,100467.72
2023-06-12T09:31:13.171Z,100467.59
2023-06-12T09:34:16.099Z,100455.13
2023-06-12T09:37:19.044Z,100459.50
2023-06-12T09:40:21.978Z,100459.03
2023-06-12T09:43:34.641Z,100447.34
2023-06-12T09:46:40.045Z,100456.28
2023-06-12T09:49:50.138Z,100455.38
2023-06-12T09:52:58.552Z,100452.69
2023-06-12T09:56:02.362Z,100460.63
2023-06-12T09:59:24.622Z,100453.78
2023-06-12T10:02:28.794Z,100455.63
2023-06-12T10:13:12.185Z,100461.50
2023-06-12T10:16:20.340Z,100451.91
2023-06-12T10:19:44.422Z,100462.03
2023-06-12T10:22:52.561Z,100452.91
2023-06-12T10:26:27.052Z,100458.06
2023-06-12T10:30:26.910Z,100455.66
2023-06-12T10:34:17.463Z,100459.81
2023-06-12T10:37:49.514Z,100461.38
2023-06-12T10:40:57.583Z,100452.03
2023-06-12T10:44:44.844Z,100452.41
2023-06-12T10:48:09.484Z,100453.06
2023-06-12T10:52:06.416Z,100443.78
2023-06-12T10:55:24.110Z,100430.13
2023-06-12T10:58:28.015Z,100436.47
2023-06-12T11:01:40.453Z,100446.59
2023-06-12T11:04:58.734Z,100437.38
2023-06-12T11:08:10.616Z,100429.75
2023-06-12T11:11:15.321Z,100430.88
2023-06-12T11:14:27.224Z,100432.66
2023-06-12T11:17:30.554Z,100420.25
2023-06-12T11:20:34.478Z,100423.97
2023-06-12T11:23:43.930Z,100430.03
2023-06-12T11:26:51.082Z,100429.16
2023-06-12T11:30:04.073Z,100422.53
2023-06-12T11:33:15.385Z,100422.25
2023-06-12T11:36:18.283Z,100418.59
2023-06-12T11:42:27.236Z,100413.84
2023-06-12T11:45:32.416Z,100419.13
2023-06-12T11:51:41.186Z,100419.47
2023-06-12T11:58:58.673Z,100420.50
2023-06-12T12:02:04.367Z,100425.44
2023-06-12T12:05:12.941Z,100422.88
2023-06-12T12:08:17.373Z,100426.22
2023-06-12T12:11:24.007Z,100421.28
2023-06-12T12:14:29.639Z,100414.91
2023-06-12T12:17:33.491Z,100414.56
2023-06-12T12:20:37.727Z,100410.38
2023-06-12T12:23:42.949Z,100412.16
2023-06-12T12:26:52.689Z,100405.19
2023-06-12T12:30:00.352Z,100401.59
2023-06-12T12:33:03.894Z,100403.75
2023-06-12T12:36:07.096Z,100397.41
2023-06-12T12:39:17.295Z,100395.25
2023-06-12T12:42:20.186Z,100393.22
2023-06-12T12:45:22.970Z,100395.22
2023-06-12T12:48:25.903Z,100395.66
2023-06-12T12:51:30.952Z,100391.88
2023-06-12T12:54:33.902Z,100383.84
2023-06-12T12:57:38.644Z,100372.94
2023-06-12T13:00:41.617Z,100380.44
2023-06-12T13:03:45.541Z,100378.63
2023-06-12T13:06:48.667Z,100377.88
2023-06-12T13:09:51.856Z,100381.25
2023-06-12T13:12:58.866Z,100383.56
2023-06-12T13:16:02.818Z,100382.69
2023-06-12T13:19:05.833Z,100371.44
2023-06-12T13:22:08.727Z,100366.88
2023-06-12T13:25:11.887Z,100373.09
2023-06-12T13:28:15.001Z,100371.94
2023-06-12T13:31:17.823Z,100381.72
2023-06-12T13:34:20.617Z,100370.97
2023-06-12T13:37:32.599Z,100372.59
2023-06-12T13:40:35.566Z,100366.97
2023-06-12T13:43:38.436Z,100375.91
2023-06-12T13:46:42.197Z,100377.28
2023-06-12T13:49:45.113Z,100378.03
2023-06-12T13:52:47.998Z,100375.69
2023-06-12T13:55:53.681Z,100378.38
2023-06-12T13:58:58.891Z,100371.78
2023-06-12T14:02:02.768Z,100383.44
2023-06-12T14:05:09.723Z,100379.97
2023-06-12T14:08:13.247Z,100381.81
2023-06-12T14:11:16.069Z,100378.03
2023-06-12T14:14:18.946Z,100375.03
2023-06-12T14:17:22.255Z,100377.78
2023-06-12T14:20:25.060Z,100383.44
2023-06-12T14:23:28.378Z,100380.78
2023-06-12T14:26:34.607Z,100380.41
2023-06-12T14:29:37.484Z,100375.50
2023-06-12T14:32:40.324Z,100382.59
2023-06-12T14:35:44.180Z,100377.66
2023-06-12T14:38:47.089Z,100378.69
2023-06-12T14:41:49.966Z,100383.31
2023-06-12T14:44:52.838Z,100387.72
2023-06-12T14:47:57.255Z,100376.41
2023-06-12T14:51:00.508Z,100380.22
2023-06-12T14:54:03.452Z,100388.97
2023-06-12T14:57:06.590Z,100380.63
2023-06-12T15:00:11.303Z,100383.09
2023-06-12T15:03:14.521Z,100380.25
2023-06-12T15:06:18.023Z,100386.47
2023-06-12T15:09:21.378Z,100382.56
2023-06-12T15:12:24.949Z,100377.84
2023-06-12T15:15:29.352Z,100385.06
2023-06-12T15:21:38.241Z,100375.22
2023-06-12T15:24:41.746Z,100381.78
2023-06-12T15:27:44.760Z,100370.69
2023-06-12T15:30:47.610Z,100371.28
2023-06-12T15:33:50.478Z,100376.59
2023-06-12T15:36:56.109Z,100381.13
2023-06-12T15:39:59.176Z,100383.91
2023-06-12T15:43:03.087Z,100382.72
2023-06-12T15:46:08.701Z,100387.03
2023-06-12T15:49:11.756Z,100380.41
2023-06-12T15:52:14.648Z,100392.25
2023-06-12T15:55:18.002Z,100387.94
2023-06-12T15:58:20.959Z,100378.59
2023-06-12T16:01:23.989Z,100379.31
2023-06-12T16:04:30.327Z,100386.81
2023-06-12T16:07:34.290Z,100392.41
2023-06-12T16:10:37.336Z,100391.50
2023-06-12T16:13:40.229Z,100395.41
2023-06-12T16:16:43.338Z,100393.66
2023-06-12T16:19:46.277Z,100396.66
2023-06-12T16:22:49.299Z,100404.19
2023-06-12T16:25:52.121Z,100405.97
2023-06-12T16:28:56.280Z,100399.78
2023-06-12T16:31:59.145Z,100405.91
2023-06-12T16:35:02.151Z,100401.44
2023-06-12T16:38:05.127Z,100406.72
2023-06-12T16:41:07.936Z,100400.25
2023-06-12T16:44:10.825Z,100406.34
2023-06-12T16:47:14.119Z,100413.91
2023-06-12T16:50:17.818Z,100421.72
2023-06-12T16:53:20.661Z,100419.97
2023-06-12T16:56:23.552Z,100413.09
2023-06-12T16:59:27.480Z,100414.53
2023-06-12T17:02:31.026Z,100418.13
2023-06-12T17:05:34.081Z,100417.38
2023-06-12T17:08:38.677Z,100417.00
2023-06-12T17:11:41.864Z,100422.97
2023-06-12T17:14:44.742Z,100423.56
2023-06-12T17:17:47.645Z,100414.38
2023-06-12T17:20:50.469Z,100419.50
2023-06-12T17:23:53.638Z,100415.31
2023-06-12T17:26:57.036Z,100417.09
2023-06-12T17:30:00.384Z,100425.47
2023-06-12T17:33:03.690Z,100423.31
2023-06-12T17:36:06.885Z,100424.75
2023-06-12T17:39:10.154Z,100421.34
2023-06-12T17:42:13.092Z,100416.22
2023-06-12T17:45:15.875Z,100419.81
2023-06-12T17:48:19.086Z,100421.56
2023-06-12T17:51:22.085Z,100418.34
2023-06-12T17:54:25.716Z,100418.41
2023-06-12T17:57:28.546Z,100420.69
2023-06-12T18:00:31.596Z,100424.31
2023-06-12T18:03:34.533Z,100428.97
2023-06-12T18:06:37.722Z,100432.25
2023-06-12T18:09:40.666Z,100437.13
2023-06-12T18:12:43.533Z,100439.28
2023-06-12T18:15:47.164Z,100436.13
2023-06-12T18:18:50.602Z,100439.41
2023-06-12T18:21:53.678Z,100442.13
2023-06-12T18:24:59.300Z,100445.94
2023-06-12T18:28:02.082Z,100443.81
2023-06-12T18:31:05.148Z,100452.44
2023-06-12T18:34:09.554Z,100447.34
2023-06-12T18:37:12.297Z,100445.44
2023-06-12T18:40:15.081Z,100451.91
2023-06-12T18:43:20.166Z,100452.97
2023-06-12T18:46:23.965Z,100465.91
2023-06-12T18:49:27.015Z,100462.38
2023-06-12T18:52:29.756Z,100471.25
2023-06-12T18:55:32.663Z,100469.91
2023-06-12T18:58:35.476Z,100478.22
2023-06-12T19:01:38.326Z,100480.59
2023-06-12T19:04:41.956Z,100481.09
2023-06-12T19:07:45.128Z,100484.53
2023-06-12T19:10:48.132Z,100493.09
2023-06-12T19:13:51.529Z,100497.09
2023-06-12T19:16:54.386Z,100499.75
2023-06-12T19:19:57.978Z,100508.88
2023-06-12T19:23:01.079Z,100503.75
2023-06-12T19:26:04.167Z,100511.72
2023-06-12T19:29:37.901Z,100512.75
2023-06-12T19:33:06.794Z,100511.13
2023-06-12T19:36:09.667Z,100519.88
2023-06-12T19:39:12.604Z,100519.97
2023-06-12T19:42:16.970Z,100516.91
2023-06-12T19:45:21.815Z,100519.75
2023-06-12T19:48:55.743Z,100522.66
2023-06-12T19:51:58.781Z,100523.13
2023-06-12T19:55:01.877Z,100520.06
2023-06-12T19:58:04.864Z,100520.50
2023-06-12T20:01:07.721Z,100518.34
2023-06-12T20:04:10.620Z,100520.44
2023-06-12T20:07:13.808Z,100527.41
2023-06-12T20:10:16.982Z,100524.44
2023-06-12T20:13:19.749Z,100520.56
2023-06-12T20:16:22.613Z,100523.09
2023-06-12T20:19:25.572Z,100521.47
2023-06-12T20:22:28.370Z,100520.00
2023-06-12T20:25:33.052Z,100526.88
2023-06-12T20:28:36.089Z,100516.81
2023-06-12T20:32:10.730Z,100521.56
2023-06-12T20:35:14.961Z,100517.25
2023-06-12T20:38:18.134Z,100523.84
2023-06-12T20:41:21.156Z,100522.41
2023-06-12T20:44:24.238Z,100525.81
2023-06-12T20:47:27.185Z,100525.44
2023-06-12T20:50:30.346Z,100525.13
2023-06-12T20:53:35.932Z,100519.53
2023-06-12T20:56:59.097Z,100517.03
2023-06-12T21:00:02.252Z,100513.63
2023-06-12T21:03:05.246Z,100510.00
2023-06-12T21:06:08.284Z,100517.28
2023-06-12T21:09:11.641Z,100517.38
2023-06-12T21:12:14.534Z,100525.00
2023-06-12T21:15:19.832Z,100524.31
2023-06-12T21:18:23.147Z,100530.94
2023-06-12T21:21:27.044Z,100531.84
2023-06-12T21:24:29.918Z,100530.09
2023-06-12T21:27:32.964Z,100539.28
2023-06-12T21:30:35.701Z,100532.16
2023-06-12T21:33:39.494Z,100541.00
2023-06-12T21:36:42.333Z,100538.31
2023-06-12T21:39:45.229Z,100542.94
2023-06-12T21:42:47.973Z,100541.09
2023-06-12T21:45:50.874Z,100541.09
2023-06-12T21:48:53.645Z,100547.47
2023-06-12T21:51:56.537Z,100549.00
2023-06-12T21:54:59.381Z,100542.09
2023-06-12T21:58:02.586Z,100544.69
2023-06-12T22:01:05.606Z,100540.78
2023-06-12T22:04:17.686Z,100543.84
2023-06-12T22:07:20.563Z,100549.56
2023-06-12T22:10:23.434Z,100544.22
2023-06-12T22:13:27.014Z,100546.81
2023-06-12T22:16:29.770Z,100556.09
2023-06-12T22:19:32.694Z,100544.25
2023-06-12T22:22:35.544Z,100543.94
2023-06-12T22:25:38.641Z,100541.63
2023-06-12T22:28:41.598Z,100544.44
2023-06-12T22:31:44.594Z,100539.69
2023-06-12T22:34:47.398Z,100548.88
2023-06-12T22:37:51.794Z,100532.78
2023-06-12T22:40:54.773Z,100543.69
2023-06-12T22:43:57.497Z,100546.19
2023-06-12T22:47:00.976Z,100548.44
2023-06-12T22:50:10.404Z,100544.97
2023-06-12T22:53:14.453Z,100549.03
2023-06-12T22:56:20.350Z,100552.97
2023-06-12T22:59:23.177Z,100557.72
2023-06-12T23:02:26.122Z,100550.19
2023-06-12T23:05:29.056Z,100555.03
2023-06-12T23:08:32.026Z,100550.50
2023-06-12T23:11:34.908Z,100551.88
2023-06-12T23:14:37.690Z,100552.66
2023-06-12T23:17:40.652Z,100549.56
2023-06-12T23:20:45.317Z,100548.72
2023-06-12T23:23:48.365Z,100547.78
2023-06-12T23:26:52.715Z,100545.91
2023-06-12T23:29:55.652Z,100549.22
2023-06-12T23:32:58.618Z,100547.44
2023-06-12T23:36:01.425Z,100547.22
2023-06-12T23:39:04.457Z,100549.63
2023-06-12T23:42:07.750Z,100546.38
2023-06-12T23:45:11.044Z,100549.72
2023-06-12T23:48:13.782Z,100540.31
2023-06-12T23:51:25.561Z,100535.75
2023-06-12T23:54:30.520Z,100540.59
2023-06-12T23:57:33.304Z,100539.53
